sensor_id;sensor_type;location;lat;lon;timestamp;pressure;altitude;pressure_sealevel;temperature;humidity
21545;BME280;10933;50.754;11.508;2022-10-19T00:00:31;100779.72;;;11.77;100.00
21545;BME280;10933;50.754;11.508;2022-10-19T00:02:57;100782.50;;;11.89;100.00
21545;BME280;10933;50.754;11.508;2022-10-19T00:05:23;100774.72;;;11.81;100.00
21545;BME280;10933;50.754;11.508;2022-10-19T00:07:49;100785.91;;;11.66;100.00
21545;BME280;10933;50.754;11.508;2022-10-19T00:10:15;100787.00;;;11.76;100.00
21545;BME280;10933;50.754;11.508;2022-10-19T00:12:42;100775.16;;;11.77;100.00
21545;BME280;10933;50.754;11.508;2022-10-19T00:15:08;100780.25;;;11.67;100.00
21545;BME280;10933;50.754;11.508;2022-10-19T00:17:34;100783.13;;;11.72;100.00
21545;BME280;10933;50.754;11.508;2022-10-19T00:20:00;100781.00;;;11.74;100.00
21545;BME280;10933;50.754;11.508;2022-10-19T00:22:26;100791.81;;;11.74;100.00
21545;BME280;10933;50.754;11.508;2022-10-19T00:24:54;100789.00;;;11.69;100.00
21545;BME280;10933;50.754;11.508;2022-10-19T00:27:21;100785.31;;;11.64;100.00
21545;BME280;10933;50.754;11.508;2022-10-19T00:29:47;100782.25;;;11.60;100.00
21545;BME280;10933;50.754;11.508;2022-10-19T00:32:13;100777.41;;;11.32;100.00
21545;BME280;10933;50.754;11.508;2022-10-19T00:34:39;100779.47;;;11.12;100.00
21545;BME280;10933;50.754;11.508;2022-10-19T00:37:05;100780.84;;;11.21;100.00
21545;BME280;10933;50.754;11.508;2022-10-19T00:39:31;100779.34;;;11.25;100.00
21545;BME280;10933;50.754;11.508;2022-10-19T00:41:57;100775.59;;;11.26;100.00
21545;BME280;10933;50.754;11.508;2022-10-19T00:47:01;100768.75;;;11.24;100.00
21545;BME280;10933;50.754;11.508;2022-10-19T00:49:32;100766.50;;;11.02;100.00
21545;BME280;10933;50.754;11.508;2022-10-19T00:52:13;100761.25;;;11.07;100.00
21545;BME280;10933;50.754;11.508;2022-10-19T00:54:43;100754.19;;;10.88;100.00
21545;BME280;10933;50.754;11.508;2022-10-19T00:57:11;100752.78;;;11.04;100.00
21545;BME280;10933;50.754;11.508;2022-10-19T00:59:40;100750.28;;;11.02;100.00
21545;BME280;10933;50.754;11.508;2022-10-19T01:02:07;100749.75;;;10.75;100.00
21545;BME280;10933;50.754;11.508;2022-10-19T01:04:37;100748.47;;;10.78;100.00
21545;BME280;10933;50.754;11.508;2022-10-19T01:07:05;100756.56;;;10.78;100.00
21545;BME280;10933;50.754;11.508;2022-10-19T01:09:33;100758.41;;;10.84;100.00
21545;BME280;10933;50.754;11.508;2022-10-19T01:27:47;100756.28;;;10.86;100.00
21545;BME280;10933;50.754;11.508;2022-10-19T01:30:37;100750.91;;;10.86;100.00
21545;BME280;10933;50.754;11.508;2022-10-19T01:36:05;100752.53;;;10.87;100.00
21545;BME280;10933;50.754;11.508;2022-10-19T01:39:11;100751.16;;;10.78;100.00
21545;BME280;10933;50.754;11.508;2022-10-19T01:41:46;100752.53;;;10.69;100.00
21545;BME280;10933;50.754;11.508;2022-10-19T01:44:29;100749.06;;;10.61;100.00
21545;BME280;10933;50.754;11.508;2022-10-19T01:47:04;100740.81;;;10.56;100.00
21545;BME280;10933;50.754;11.508;2022-10-19T01:49:52;100752.34;;;10.64;100.00
21545;BME280;10933;50.754;11.508;2022-10-19T01:52:21;100744.84;;;10.66;100.00
21545;BME280;10933;50.754;11.508;2022-10-19T01:54:51;100738.47;;;10.42;100.00
21545;BME280;10933;50.754;11.508;2022-10-19T01:57:28;100739.44;;;10.47;100.00
21545;BME280;10933;50.754;11.508;2022-10-19T01:59:56;100743.19;;;10.46;100.00
21545;BME280;10933;50.754;11.508;2022-10-19T02:02:25;100741.41;;;10.34;100.00
21545;BME280;10933;50.754;11.508;2022-10-19T02:04:53;100740.25;;;10.16;100.00
21545;BME280;10933;50.754;11.508;2022-10-19T02:07:22;100741.97;;;10.11;100.00
21545;BME280;10933;50.754;11.508;2022-10-19T02:09:49;100740.81;;;10.31;100.00
21545;BME280;10933;50.754;11.508;2022-10-19T02:12:16;100740.06;;;10.18;100.00
21545;BME280;10933;50.754;11.508;2022-10-19T02:14:48;100730.97;;;10.12;100.00
21545;BME280;10933;50.754;11.508;2022-10-19T02:17:19;100739.22;;;10.24;100.00
21545;BME280;10933;50.754;11.508;2022-10-19T02:19:46;100737.13;;;10.26;100.00
21545;BME280;10933;50.754;11.508;2022-10-19T02:22:12;100738.59;;;10.22;100.00
21545;BME280;10933;50.754;11.508;2022-10-19T02:24:39;100727.19;;;10.20;100.00
21545;BME280;10933;50.754;11.508;2022-10-19T02:27:06;100741.91;;;10.24;100.00
21545;BME280;10933;50.754;11.508;2022-10-19T02:29:33;100740.25;;;10.16;100.00
21545;BME280;10933;50.754;11.508;2022-10-19T02:32:00;100735.28;;;10.20;100.00
21545;BME280;10933;50.754;11.508;2022-10-19T02:34:27;100735.19;;;10.33;100.00
21545;BME280;10933;50.754;11.508;2022-10-19T02:36:54;100734.53;;;10.38;100.00
21545;BME280;10933;50.754;11.508;2022-10-19T02:39:21;100738.00;;;10.45;100.00
21545;BME280;10933;50.754;11.508;2022-10-19T02:41:48;100733.59;;;10.50;100.00
21545;BME280;10933;50.754;11.508;2022-10-19T02:44:27;100729.84;;;10.51;100.00
21545;BME280;10933;50.754;11.508;2022-10-19T02:47:03;100730.88;;;10.50;100.00
21545;BME280;10933;50.754;11.508;2022-10-19T02:49:34;100723.41;;;10.52;100.00
21545;BME280;10933;50.754;11.508;2022-10-19T02:52:05;100727.31;;;10.56;100.00
21545;BME280;10933;50.754;11.508;2022-10-19T02:54:32;100720.06;;;10.32;100.00
21545;BME280;10933;50.754;11.508;2022-10-19T02:56:59;100717.88;;;10.16;100.00
21545;BME280;10933;50.754;11.508;2022-10-19T02:59:26;100717.97;;;10.02;100.00
21545;BME280;10933;50.754;11.508;2022-10-19T03:01:52;100716.66;;;10.12;100.00
21545;BME280;10933;50.754;11.508;2022-10-19T03:04:19;100715.81;;;10.18;100.00
21545;BME280;10933;50.754;11.508;2022-10-19T03:06:45;100718.69;;;10.23;100.00
21545;BME280;10933;50.754;11.508;2022-10-19T03:09:11;100719.63;;;10.35;100.00
21545;BME280;10933;50.754;11.508;2022-10-19T03:11:37;100717.63;;;10.49;100.00
21545;BME280;10933;50.754;11.508;2022-10-19T03:14:03;100718.19;;;10.32;100.00
21545;BME280;10933;50.754;11.508;2022-10-19T03:16:29;100714.69;;;10.32;100.00
21545;BME280;10933;50.754;11.508;2022-10-19T03:18:55;100718.25;;;10.26;100.00
21545;BME280;10933;50.754;11.508;2022-10-19T03:21:21;100723.63;;;10.26;100.00
21545;BME280;10933;50.754;11.508;2022-10-19T03:23:48;100716.13;;;10.28;100.00
21545;BME280;10933;50.754;11.508;2022-10-19T03:26:15;100707.72;;;10.18;100.00
21545;BME280;10933;50.754;11.508;2022-10-19T03:28:42;100708.34;;;10.13;100.00
21545;BME280;10933;50.754;11.508;2022-10-19T03:31:08;100706.88;;;10.17;100.00
21545;BME280;10933;50.754;11.508;2022-10-19T03:33:35;100704.13;;;10.30;100.00
21545;BME280;10933;50.754;11.508;2022-10-19T03:38:39;100710.81;;;10.21;100.00
21545;BME280;10933;50.754;11.508;2022-10-19T03:41:07;100715.34;;;10.21;100.00
21545;BME280;10933;50.754;11.508;2022-10-19T03:43:33;100707.09;;;10.16;100.00
21545;BME280;10933;50.754;11.508;2022-10-19T03:46:00;100716.94;;;10.03;100.00
21545;BME280;10933;50.754;11.508;2022-10-19T03:48:26;100721.41;;;9.91;100.00
21545;BME280;10933;50.754;11.508;2022-10-19T03:51:04;100721.19;;;9.86;100.00
21545;BME280;10933;50.754;11.508;2022-10-19T03:53:31;100725.91;;;9.97;100.00
21545;BME280;10933;50.754;11.508;2022-10-19T03:56:15;100721.41;;;9.91;100.00
21545;BME280;10933;50.754;11.508;2022-10-19T03:58:43;100726.44;;;9.81;100.00
21545;BME280;10933;50.754;11.508;2022-10-19T04:01:19;100740.75;;;9.75;100.00
21545;BME280;10933;50.754;11.508;2022-10-19T04:03:45;100741.03;;;9.67;100.00
21545;BME280;10933;50.754;11.508;2022-10-19T04:06:14;100738.13;;;9.62;100.00
21545;BME280;10933;50.754;11.508;2022-10-19T04:08:42;100744.81;;;9.53;100.00
21545;BME280;10933;50.754;11.508;2022-10-19T04:11:11;100741.94;;;9.48;100.00
21545;BME280;10933;50.754;11.508;2022-10-19T04:13:38;100747.50;;;9.53;100.00
21545;BME280;10933;50.754;11.508;2022-10-19T04:16:04;100747.69;;;9.58;100.00
21545;BME280;10933;50.754;11.508;2022-10-19T04:18:31;100759.31;;;9.52;100.00
21545;BME280;10933;50.754;11.508;2022-10-19T04:21:01;100759.22;;;9.27;100.00
21545;BME280;10933;50.754;11.508;2022-10-19T04:23:30;100768.09;;;9.40;100.00
21545;BME280;10933;50.754;11.508;2022-10-19T04:26:02;100770.72;;;9.54;100.00
21545;BME280;10933;50.754;11.508;2022-10-19T04:28:28;100777.19;;;9.39;100.00
21545;BME280;10933;50.754;11.508;2022-10-19T04:30:55;100766.72;;;9.63;100.00
21545;BME280;10933;50.754;11.508;2022-10-19T04:33:21;100762.16;;;9.70;100.00
21545;BME280;10933;50.754;11.508;2022-10-19T04:35:47;100763.00;;;9.64;100.00
21545;BME280;10933;50.754;11.508;2022-10-19T04:38:13;100771.66;;;9.72;100.00
21545;BME280;10933;50.754;11.508;2022-10-19T04:40:39;100767.53;;;9.70;100.00
21545;BME280;10933;50.754;11.508;2022-10-19T04:43:05;100774.63;;;9.58;100.00
21545;BME280;10933;50.754;11.508;2022-10-19T04:45:34;100768.78;;;9.67;100.00
21545;BME280;10933;50.754;11.508;2022-10-19T04:48:00;100776.47;;;9.64;100.00
21545;BME280;10933;50.754;11.508;2022-10-19T04:50:27;100776.66;;;9.69;100.00
21545;BME280;10933;50.754;11.508;2022-10-19T04:52:53;100775.00;;;9.68;100.00
21545;BME280;10933;50.754;11.508;2022-10-19T04:55:19;100769.72;;;9.86;100.00
21545;BME280;10933;50.754;11.508;2022-10-19T04:57:45;100772.47;;;9.80;100.00
21545;BME280;10933;50.754;11.508;2022-10-19T05:00:12;100773.53;;;9.72;100.00
21545;BME280;10933;50.754;11.508;2022-10-19T05:02:42;100775.56;;;9.77;100.00
21545;BME280;10933;50.754;11.508;2022-10-19T05:05:09;100774.88;;;9.88;100.00
21545;BME280;10933;50.754;11.508;2022-10-19T05:07:35;100772.88;;;9.77;100.00
21545;BME280;10933;50.754;11.508;2022-10-19T05:10:02;100776.59;;;9.82;100.00
21545;BME280;10933;50.754;11.508;2022-10-19T05:12:28;100769.34;;;9.76;100.00
21545;BME280;10933;50.754;11.508;2022-10-19T05:14:54;100773.38;;;9.67;100.00
21545;BME280;10933;50.754;11.508;2022-10-19T05:17:20;100768.81;;;9.61;100.00
21545;BME280;10933;50.754;11.508;2022-10-19T05:19:47;100766.94;;;9.61;100.00
21545;BME280;10933;50.754;11.508;2022-10-19T05:22:13;100778.38;;;9.57;100.00
21545;BME280;10933;50.754;11.508;2022-10-19T05:24:39;100777.47;;;9.69;100.00
21545;BME280;10933;50.754;11.508;2022-10-19T05:27:05;100774.13;;;9.74;100.00
21545;BME280;10933;50.754;11.508;2022-10-19T05:29:31;100775.78;;;9.75;100.00
21545;BME280;10933;50.754;11.508;2022-10-19T05:31:58;100771.63;;;9.79;100.00
21545;BME280;10933;50.754;11.508;2022-10-19T05:34:24;100769.97;;;9.78;100.00
21545;BME280;10933;50.754;11.508;2022-10-19T05:36:51;100769.72;;;9.86;100.00
21545;BME280;10933;50.754;11.508;2022-10-19T05:39:19;100763.72;;;9.84;100.00
21545;BME280;10933;50.754;11.508;2022-10-19T05:41:46;100772.84;;;9.83;100.00
21545;BME280;10933;50.754;11.508;2022-10-19T05:44:18;100773.63;;;9.90;100.00
21545;BME280;10933;50.754;11.508;2022-10-19T05:46:45;100778.59;;;9.93;100.00
21545;BME280;10933;50.754;11.508;2022-10-19T05:49:12;100781.53;;;9.85;100.00
21545;BME280;10933;50.754;11.508;2022-10-19T05:51:39;100774.50;;;9.84;100.00
21545;BME280;10933;50.754;11.508;2022-10-19T05:54:05;100787.28;;;9.95;100.00
21545;BME280;10933;50.754;11.508;2022-10-19T05:56:32;100781.25;;;10.00;100.00
21545;BME280;10933;50.754;11.508;2022-10-19T05:59:01;100789.09;;;10.01;100.00
21545;BME280;10933;50.754;11.508;2022-10-19T06:01:28;100788.50;;;9.99;100.00
21545;BME280;10933;50.754;11.508;2022-10-19T06:03:56;100786.38;;;10.08;100.00
21545;BME280;10933;50.754;11.508;2022-10-19T06:06:23;100787.97;;;10.16;100.00
21545;BME280;10933;50.754;11.508;2022-10-19T06:08:51;100793.38;;;10.16;100.00
21545;BME280;10933;50.754;11.508;2022-10-19T06:11:21;100795.91;;;10.11;100.00
21545;BME280;10933;50.754;11.508;2022-10-19T06:13:48;100799.84;;;10.08;100.00
21545;BME280;10933;50.754;11.508;2022-10-19T06:16:16;100806.53;;;10.06;100.00
21545;BME280;10933;50.754;11.508;2022-10-19T06:18:43;100808.94;;;10.14;100.00
21545;BME280;10933;50.754;11.508;2022-10-19T06:21:18;100804.66;;;10.06;100.00
21545;BME280;10933;50.754;11.508;2022-10-19T06:23:49;100807.38;;;9.99;100.00
21545;BME280;10933;50.754;11.508;2022-10-19T06:26:16;100804.44;;;10.08;100.00
21545;BME280;10933;50.754;11.508;2022-10-19T06:28:43;100812.47;;;10.14;100.00
21545;BME280;10933;50.754;11.508;2022-10-19T06:31:10;100815.53;;;10.24;100.00
21545;BME280;10933;50.754;11.508;2022-10-19T06:33:39;100819.06;;;10.25;100.00
21545;BME280;10933;50.754;11.508;2022-10-19T06:36:10;100823.59;;;10.31;100.00
21545;BME280;10933;50.754;11.508;2022-10-19T06:38:37;100816.16;;;10.26;100.00
21545;BME280;10933;50.754;11.508;2022-10-19T06:41:03;100822.63;;;10.19;100.00
21545;BME280;10933;50.754;11.508;2022-10-19T06:43:29;100827.38;;;10.23;100.00
21545;BME280;10933;50.754;11.508;2022-10-19T06:45:56;100815.66;;;10.36;100.00
21545;BME280;10933;50.754;11.508;2022-10-19T06:48:22;100817.22;;;10.50;100.00
21545;BME280;10933;50.754;11.508;2022-10-19T06:50:56;100818.69;;;10.21;100.00
21545;BME280;10933;50.754;11.508;2022-10-19T06:53:22;100819.91;;;10.19;100.00
21545;BME280;10933;50.754;11.508;2022-10-19T06:55:49;100826.75;;;10.15;100.00
21545;BME280;10933;50.754;11.508;2022-10-19T06:58:15;100828.59;;;10.21;100.00
21545;BME280;10933;50.754;11.508;2022-10-19T07:00:41;100831.00;;;10.42;100.00
21545;BME280;10933;50.754;11.508;2022-10-19T07:03:07;100828.97;;;10.63;100.00
21545;BME280;10933;50.754;11.508;2022-10-19T07:05:33;100835.41;;;10.61;100.00
21545;BME280;10933;50.754;11.508;2022-10-19T07:07:59;100837.72;;;10.83;100.00
21545;BME280;10933;50.754;11.508;2022-10-19T07:10:25;100834.59;;;11.04;100.00
21545;BME280;10933;50.754;11.508;2022-10-19T07:12:52;100841.22;;;11.08;100.00
21545;BME280;10933;50.754;11.508;2022-10-19T07:15:18;100830.94;;;10.99;100.00
21545;BME280;10933;50.754;11.508;2022-10-19T07:17:44;100840.69;;;11.00;100.00
21545;BME280;10933;50.754;11.508;2022-10-19T07:20:10;100841.59;;;11.12;100.00
21545;BME280;10933;50.754;11.508;2022-10-19T07:22:37;100833.44;;;11.18;100.00
21545;BME280;10933;50.754;11.508;2022-10-19T07:25:03;100836.56;;;11.15;100.00
21545;BME280;10933;50.754;11.508;2022-10-19T07:27:29;100833.13;;;11.27;100.00
21545;BME280;10933;50.754;11.508;2022-10-19T07:29:56;100837.19;;;11.36;100.00
21545;BME280;10933;50.754;11.508;2022-10-19T07:32:22;100832.16;;;11.39;100.00
21545;BME280;10933;50.754;11.508;2022-10-19T07:34:48;100835.25;;;11.61;100.00
21545;BME280;10933;50.754;11.508;2022-10-19T07:37:14;100840.13;;;11.53;100.00
21545;BME280;10933;50.754;11.508;2022-10-19T07:39:41;100832.44;;;11.68;100.00
21545;BME280;10933;50.754;11.508;2022-10-19T07:42:07;100831.03;;;11.65;100.00
21545;BME280;10933;50.754;11.508;2022-10-19T07:44:33;100828.66;;;11.57;100.00
21545;BME280;10933;50.754;11.508;2022-10-19T07:46:59;100835.09;;;11.38;100.00
21545;BME280;10933;50.754;11.508;2022-10-19T07:49:25;100829.91;;;11.36;100.00
21545;BME280;10933;50.754;11.508;2022-10-19T07:51:51;100828.47;;;11.52;100.00
21545;BME280;10933;50.754;11.508;2022-10-19T07:54:19;100834.63;;;11.77;100.00
21545;BME280;10933;50.754;11.508;2022-10-19T07:56:46;100833.91;;;11.34;100.00
21545;BME280;10933;50.754;11.508;2022-10-19T07:59:12;100833.16;;;11.45;100.00
21545;BME280;10933;50.754;11.508;2022-10-19T08:01:41;100837.47;;;11.28;100.00
21545;BME280;10933;50.754;11.508;2022-10-19T08:04:08;100832.69;;;11.85;100.00
21545;BME280;10933;50.754;11.508;2022-10-19T08:06:34;100830.94;;;11.17;100.00
21545;BME280;10933;50.754;11.508;2022-10-19T08:09:02;100832.53;;;11.43;100.00
21545;BME280;10933;50.754;11.508;2022-10-19T08:11:32;100832.84;;;11.35;100.00
21545;BME280;10933;50.754;11.508;2022-10-19T08:13:59;100835.69;;;11.95;100.00
21545;BME280;10933;50.754;11.508;2022-10-19T08:16:28;100832.84;;;12.73;100.00
21545;BME280;10933;50.754;11.508;2022-10-19T08:19:00;100824.78;;;12.55;100.00
21545;BME280;10933;50.754;11.508;2022-10-19T08:21:27;100818.94;;;12.81;100.00
21545;BME280;10933;50.754;11.508;2022-10-19T08:23:53;100815.41;;;13.16;100.00
21545;BME280;10933;50.754;11.508;2022-10-19T08:26:20;100814.59;;;12.80;100.00
21545;BME280;10933;50.754;11.508;2022-10-19T08:28:47;100810.19;;;12.32;100.00
21545;BME280;10933;50.754;11.508;2022-10-19T08:31:17;100819.47;;;12.36;100.00
21545;BME280;10933;50.754;11.508;2022-10-19T08:33:44;100812.94;;;12.14;100.00
21545;BME280;10933;50.754;11.508;2022-10-19T08:36:12;100817.25;;;12.33;100.00
21545;BME280;10933;50.754;11.508;2022-10-19T08:38:39;100823.31;;;11.69;100.00
21545;BME280;10933;50.754;11.508;2022-10-19T08:44:15;100809.38;;;12.02;100.00
21545;BME280;10933;50.754;11.508;2022-10-19T08:49:47;100809.00;;;11.98;100.00
21545;BME280;10933;50.754;11.508;2022-10-19T08:52:30;100810.91;;;11.79;100.00
21545;BME280;10933;50.754;11.508;2022-10-19T08:55:09;100810.16;;;11.72;100.00
21545;BME280;10933;50.754;11.508;2022-10-19T09:00:33;100810.75;;;11.74;100.00
21545;BME280;10933;50.754;11.508;2022-10-19T09:03:27;100813.00;;;11.96;100.00
21545;BME280;10933;50.754;11.508;2022-10-19T09:06:09;100808.25;;;12.21;100.00
21545;BME280;10933;50.754;11.508;2022-10-19T09:08:45;100799.28;;;13.09;100.00
21545;BME280;10933;50.754;11.508;2022-10-19T09:11:12;100792.56;;;13.12;100.00
21545;BME280;10933;50.754;11.508;2022-10-19T09:13:42;100794.19;;;15.61;100.00
21545;BME280;10933;50.754;11.508;2022-10-19T09:16:19;100786.44;;;15.53;100.00
21545;BME280;10933;50.754;11.508;2022-10-19T09:18:46;100792.81;;;17.09;100.00
21545;BME280;10933;50.754;11.508;2022-10-19T09:21:31;100786.78;;;14.46;100.00
21545;BME280;10933;50.754;11.508;2022-10-19T09:24:05;100777.91;;;13.60;100.00
21545;BME280;10933;50.754;11.508;2022-10-19T09:26:54;100776.63;;;13.79;100.00
21545;BME280;10933;50.754;11.508;2022-10-19T09:29:37;100780.41;;;13.78;100.00
21545;BME280;10933;50.754;11.508;2022-10-19T09:32:11;100774.06;;;13.72;100.00
21545;BME280;10933;50.754;11.508;2022-10-19T09:34:50;100767.91;;;13.48;100.00
21545;BME280;10933;50.754;11.508;2022-10-19T09:37:17;100775.03;;;13.26;100.00
21545;BME280;10933;50.754;11.508;2022-10-19T09:39:45;100777.41;;;12.76;100.00
21545;BME280;10933;50.754;11.508;2022-10-19T09:45:10;100781.97;;;12.99;100.00
21545;BME280;10933;50.754;11.508;2022-10-19T09:47:39;100781.84;;;13.05;100.00
21545;BME280;10933;50.754;11.508;2022-10-19T09:50:24;100779.97;;;12.94;100.00
21545;BME280;10933;50.754;11.508;2022-10-19T09:52:59;100785.97;;;13.31;100.00
21545;BME280;10933;50.754;11.508;2022-10-19T09:55:37;100779.97;;;13.98;100.00
21545;BME280;10933;50.754;11.508;2022-10-19T10:00:44;100781.72;;;13.12;100.00
21545;BME280;10933;50.754;11.508;2022-10-19T10:03:32;100778.78;;;12.66;100.00
21545;BME280;10933;50.754;11.508;2022-10-19T10:06:14;100782.19;;;12.38;100.00
21545;BME280;10933;50.754;11.508;2022-10-19T10:08:53;100779.56;;;12.20;100.00
21545;BME280;10933;50.754;11.508;2022-10-19T10:11:37;100782.13;;;12.15;100.00
21545;BME280;10933;50.754;11.508;2022-10-19T10:14:25;100784.84;;;12.27;100.00
21545;BME280;10933;50.754;11.508;2022-10-19T10:17:04;100770.88;;;12.42;100.00
21545;BME280;10933;50.754;11.508;2022-10-19T10:19:33;100774.56;;;12.71;100.00
21545;BME280;10933;50.754;11.508;2022-10-19T10:22:03;100779.28;;;12.75;100.00
21545;BME280;10933;50.754;11.508;2022-10-19T10:24:31;100781.50;;;12.78;100.00
21545;BME280;10933;50.754;11.508;2022-10-19T10:27:00;100778.50;;;13.50;100.00
21545;BME280;10933;50.754;11.508;2022-10-19T10:29:35;100776.31;;;13.12;100.00
21545;BME280;10933;50.754;11.508;2022-10-19T10:32:12;100771.38;;;13.09;100.00
21545;BME280;10933;50.754;11.508;2022-10-19T10:35:00;100773.13;;;13.15;100.00
21545;BME280;10933;50.754;11.508;2022-10-19T10:37:43;100773.44;;;14.10;100.00
21545;BME280;10933;50.754;11.508;2022-10-19T10:40:23;100771.34;;;15.40;100.00
21545;BME280;10933;50.754;11.508;2022-10-19T10:42:54;100773.75;;;14.98;100.00
21545;BME280;10933;50.754;11.508;2022-10-19T10:45:41;100767.91;;;15.72;100.00
21545;BME280;10933;50.754;11.508;2022-10-19T10:51:39;100770.56;;;18.10;100.00
21545;BME280;10933;50.754;11.508;2022-10-19T10:57:15;100773.38;;;19.56;98.28
21545;BME280;10933;50.754;11.508;2022-10-19T11:02:44;100752.44;;;17.05;100.00
21545;BME280;10933;50.754;11.508;2022-10-19T11:05:26;100767.34;;;15.48;100.00
21545;BME280;10933;50.754;11.508;2022-10-19T11:11:39;100747.00;;;13.89;100.00
21545;BME280;10933;50.754;11.508;2022-10-19T11:16:43;100747.16;;;13.42;100.00
21545;BME280;10933;50.754;11.508;2022-10-19T11:19:22;100737.09;;;13.54;100.00
21545;BME280;10933;50.754;11.508;2022-10-19T11:21:56;100734.66;;;13.53;100.00
21545;BME280;10933;50.754;11.508;2022-10-19T11:27:21;100724.03;;;13.11;100.00
21545;BME280;10933;50.754;11.508;2022-10-19T11:35:44;100723.34;;;12.69;100.00
21545;BME280;10933;50.754;11.508;2022-10-19T11:52:20;100705.16;;;15.78;100.00
21545;BME280;10933;50.754;11.508;2022-10-19T11:55:11;100701.50;;;15.68;100.00
21545;BME280;10933;50.754;11.508;2022-10-19T12:00:37;100692.88;;;15.27;100.00
21545;BME280;10933;50.754;11.508;2022-10-19T12:13:58;100685.84;;;15.31;100.00
21545;BME280;10933;50.754;11.508;2022-10-19T12:16:39;100685.09;;;14.20;100.00
21545;BME280;10933;50.754;11.508;2022-10-19T12:19:35;100679.31;;;13.66;100.00
21545;BME280;10933;50.754;11.508;2022-10-19T12:22:03;100670.91;;;13.50;100.00
21545;BME280;10933;50.754;11.508;2022-10-19T12:24:32;100669.44;;;13.31;100.00
21545;BME280;10933;50.754;11.508;2022-10-19T12:26:59;100674.75;;;13.26;100.00
21545;BME280;10933;50.754;11.508;2022-10-19T12:29:38;100670.22;;;13.43;100.00
21545;BME280;10933;50.754;11.508;2022-10-19T12:32:07;100662.53;;;13.69;100.00
21545;BME280;10933;50.754;11.508;2022-10-19T12:34:59;100667.13;;;14.69;100.00
21545;BME280;10933;50.754;11.508;2022-10-19T12:38:46;100671.19;;;15.10;100.00
21545;BME280;10933;50.754;11.508;2022-10-19T12:40:49;100673.66;;;15.12;100.00
21545;BME280;10933;50.754;11.508;2022-10-19T12:43:32;100666.03;;;15.84;100.00
21545;BME280;10933;50.754;11.508;2022-10-19T12:51:58;100661.53;;;16.37;100.00
21545;BME280;10933;50.754;11.508;2022-10-19T12:54:27;100656.63;;;17.64;100.00
21545;BME280;10933;50.754;11.508;2022-10-19T12:56:56;100660.81;;;16.94;100.00
21545;BME280;10933;50.754;11.508;2022-10-19T12:59:32;100662.16;;;18.00;100.00
21545;BME280;10933;50.754;11.508;2022-10-19T13:02:01;100654.44;;;16.31;100.00
21545;BME280;10933;50.754;11.508;2022-10-19T13:04:34;100658.13;;;14.30;100.00
21545;BME280;10933;50.754;11.508;2022-10-19T13:07:03;100652.06;;;13.89;100.00
21545;BME280;10933;50.754;11.508;2022-10-19T13:09:45;100649.75;;;14.14;100.00
21545;BME280;10933;50.754;11.508;2022-10-19T13:33:43;100647.94;;;12.49;100.00
21545;BME280;10933;50.754;11.508;2022-10-19T13:36:10;100651.56;;;12.31;100.00
21545;BME280;10933;50.754;11.508;2022-10-19T13:41:18;100644.06;;;12.10;100.00
21545;BME280;10933;50.754;11.508;2022-10-19T13:49:27;100631.94;;;12.13;100.00
21545;BME280;10933;50.754;11.508;2022-10-19T14:11:49;100636.06;;;12.15;100.00
21545;BME280;10933;50.754;11.508;2022-10-19T14:14:23;100629.00;;;12.02;100.00
21545;BME280;10933;50.754;11.508;2022-10-19T14:16:59;100627.34;;;11.90;100.00
21545;BME280;10933;50.754;11.508;2022-10-19T14:19:43;100625.38;;;12.20;100.00
21545;BME280;10933;50.754;11.508;2022-10-19T14:22:29;100628.53;;;12.17;100.00
21545;BME280;10933;50.754;11.508;2022-10-19T14:25:24;100622.91;;;11.95;100.00
21545;BME280;10933;50.754;11.508;2022-10-19T14:28:00;100620.88;;;11.91;100.00
21545;BME280;10933;50.754;11.508;2022-10-19T14:30:28;100612.06;;;11.84;100.00
21545;BME280;10933;50.754;11.508;2022-10-19T14:32:57;100605.47;;;12.03;100.00
21545;BME280;10933;50.754;11.508;2022-10-19T14:35:28;100595.81;;;12.30;100.00
21545;BME280;10933;50.754;11.508;2022-10-19T14:37:55;100603.50;;;12.22;100.00
21545;BME280;10933;50.754;11.508;2022-10-19T14:40:32;100601.22;;;12.30;100.00
21545;BME280;10933;50.754;11.508;2022-10-19T14:42:59;100598.53;;;12.19;100.00
21545;BME280;10933;50.754;11.508;2022-10-19T14:45:28;100593.94;;;12.19;100.00
21545;BME280;10933;50.754;11.508;2022-10-19T14:55:43;100591.84;;;11.98;100.00
21545;BME280;10933;50.754;11.508;2022-10-19T14:58:14;100592.03;;;11.73;100.00
21545;BME280;10933;50.754;11.508;2022-10-19T15:00:42;100586.47;;;11.68;100.00
21545;BME280;10933;50.754;11.508;2022-10-19T15:03:12;100590.84;;;11.57;100.00
21545;BME280;10933;50.754;11.508;2022-10-19T15:05:47;100589.19;;;11.56;100.00
21545;BME280;10933;50.754;11.508;2022-10-19T15:10:49;100578.31;;;11.33;100.00
21545;BME280;10933;50.754;11.508;2022-10-19T15:13:30;100580.53;;;11.24;100.00
21545;BME280;10933;50.754;11.508;2022-10-19T15:15:58;100591.88;;;11.14;100.00
21545;BME280;10933;50.754;11.508;2022-10-19T15:18:25;100600.19;;;11.13;100.00
21545;BME280;10933;50.754;11.508;2022-10-19T15:21:18;100590.56;;;11.05;100.00
21545;BME280;10933;50.754;11.508;2022-10-19T15:23:50;100597.00;;;11.04;100.00
21545;BME280;10933;50.754;11.508;2022-10-19T15:26:26;100590.88;;;10.97;100.00